createdAt,value
2023-01-15T00:29:40.157Z,0
2023-01-15T00:30:20.715Z,0
2023-01-15T00:31:01.267Z,0
2023-01-15T00:36:25.127Z,0
2023-01-15T00:37:05.605Z,0
2023-01-15T00:37:46.099Z,0
2023-01-15T00:38:26.580Z,0
2023-01-15T00:39:07.080Z,0
2023-01-15T00:39:47.531Z,0
2023-01-15T00:40:28.019Z,0
2023-01-15T00:41:08.501Z,0
2023-01-15T00:41:48.992Z,0
2023-01-15T00:42:29.520Z,0
2023-01-15T00:49:54.976Z,0
2023-01-15T00:50:35.464Z,0
2023-01-15T00:51:15.983Z,0
2023-01-15T00:51:56.524Z,0
2023-01-15T00:52:37.011Z,0
2023-01-15T00:53:57.968Z,0
2023-01-15T00:54:38.469Z,0
2023-01-15T00:55:18.975Z,0
2023-01-15T00:55:59.499Z,0
2023-01-15T01:02:45.312Z,0
2023-01-15T01:03:25.755Z,0
2023-01-15T01:04:06.246Z,0
2023-01-15T01:04:46.747Z,0
2023-01-15T01:05:27.267Z,0
2023-01-15T01:06:07.771Z,0
2023-01-15T01:06:48.274Z,0
2023-01-15T01:07:28.749Z,0
2023-01-15T01:08:09.217Z,0
2023-01-15T01:08:49.688Z,0
2023-01-15T01:16:15.216Z,0
2023-01-15T01:16:55.697Z,0
2023-01-15T01:17:36.197Z,0
2023-01-15T01:18:57.198Z,0
2023-01-15T01:19:38.071Z,0
2023-01-15T01:20:18.536Z,0
2023-01-15T01:20:59.025Z,0
2023-01-15T01:21:39.517Z,0
2023-01-15T01:29:05.055Z,0
2023-01-15T01:29:45.537Z,0
2023-01-15T01:30:26.018Z,0
2023-01-15T01:31:06.531Z,0
2023-01-15T01:31:47.053Z,0
2023-01-15T01:32:27.491Z,0
2023-01-15T01:33:07.995Z,0
2023-01-15T01:33:48.481Z,0
2023-01-15T01:34:28.967Z,0
2023-01-15T01:35:09.460Z,0
2023-01-15T01:42:34.969Z,0
2023-01-15T01:43:15.479Z,0
2023-01-15T01:43:55.935Z,0
2023-01-15T01:44:36.414Z,0
2023-01-15T01:45:16.917Z,0
2023-01-15T01:45:57.501Z,0
2023-01-15T01:46:38.006Z,0
2023-01-15T01:47:18.435Z,0
2023-01-15T01:47:58.950Z,0
2023-01-15T01:48:39.409Z,0
2023-01-15T01:56:04.863Z,0
2023-01-15T01:56:45.368Z,0
2023-01-15T01:57:25.854Z,0
2023-01-15T01:58:06.340Z,0
2023-01-15T01:58:46.831Z,0
2023-01-15T01:59:27.337Z,0
2023-01-15T02:00:07.841Z,0
2023-01-15T02:00:48.391Z,0
2023-01-15T02:01:29.005Z,0
2023-01-15T02:02:09.460Z,0
2023-01-15T02:09:34.823Z,0
2023-01-15T02:10:15.324Z,0
2023-01-15T02:10:55.793Z,0
2023-01-15T02:11:36.276Z,0
2023-01-15T02:12:16.761Z,0
2023-01-15T02:12:57.277Z,0
2023-01-15T02:13:37.749Z,0
2023-01-15T02:14:18.255Z,0
2023-01-15T02:14:58.798Z,0
2023-01-15T02:15:39.240Z,0
2023-01-15T02:16:19.837Z,0
2023-01-15T02:23:45.050Z,0
2023-01-15T02:24:25.559Z,0
2023-01-15T02:25:06.052Z,0
2023-01-15T02:25:46.583Z,0
2023-01-15T02:26:27.075Z,0
2023-01-15T02:27:07.632Z,0
2023-01-15T02:27:48.116Z,0
2023-01-15T02:28:28.615Z,0
2023-01-15T02:29:09.116Z,0
2023-01-15T02:37:15.011Z,0
2023-01-15T02:37:55.519Z,0
2023-01-15T02:38:35.980Z,0
2023-01-15T02:39:16.452Z,0
2023-01-15T02:39:56.968Z,0
2023-01-15T02:40:37.453Z,0
2023-01-15T02:41:17.978Z,0
2023-01-15T02:41:58.423Z,0
2023-01-15T02:42:38.947Z,0
2023-01-15T02:43:19.442Z,0
2023-01-15T02:50:45.018Z,0
2023-01-15T02:51:25.483Z,0
2023-01-15T02:52:05.943Z,0
2023-01-15T02:52:46.416Z,0
2023-01-15T02:53:26.906Z,0
2023-01-15T02:54:07.409Z,0
2023-01-15T02:54:47.956Z,0
2023-01-15T02:55:28.401Z,0
2023-01-15T02:56:08.883Z,0
2023-01-15T02:56:49.349Z,0
2023-01-15T03:04:55.233Z,0
2023-01-15T03:06:16.257Z,0
2023-01-15T03:06:56.734Z,0
2023-01-15T03:07:37.239Z,0
2023-01-15T03:08:17.747Z,0
2023-01-15T03:08:58.296Z,0
2023-01-15T03:09:38.841Z,0
2023-01-15T03:10:19.393Z,0
2023-01-15T03:17:44.829Z,0
2023-01-15T03:18:25.299Z,0
2023-01-15T03:19:05.847Z,0
2023-01-15T03:19:46.340Z,0
2023-01-15T03:20:26.847Z,0
2023-01-15T03:21:07.365Z,0
2023-01-15T03:21:48.720Z,0
2023-01-15T03:22:29.185Z,0
2023-01-15T03:23:09.692Z,0
2023-01-15T03:29:54.774Z,0
2023-01-15T03:30:35.277Z,0
2023-01-15T03:31:15.775Z,0
2023-01-15T03:31:56.308Z,0
2023-01-15T03:32:36.819Z,0
2023-01-15T03:33:17.294Z,0
2023-01-15T03:33:57.829Z,0
2023-01-15T03:34:38.376Z,0
2023-01-15T03:35:18.875Z,0
2023-01-15T03:35:59.384Z,0
2023-01-15T03:42:35.626Z,0
2023-01-15T03:43:16.104Z,0
2023-01-15T03:43:56.612Z,0
2023-01-15T03:44:37.141Z,0
2023-01-15T03:45:17.569Z,0
2023-01-15T03:45:58.107Z,0
2023-01-15T03:46:38.666Z,0
2023-01-15T03:54:44.549Z,0
2023-01-15T03:55:25.088Z,0
2023-01-15T03:56:05.556Z,0
2023-01-15T03:56:46.040Z,0
2023-01-15T03:57:26.545Z,0
2023-01-15T04:01:05.710Z,0
2023-01-15T04:01:46.198Z,0
2023-01-15T04:02:26.591Z,0
2023-01-15T04:03:07.120Z,0
2023-01-15T04:07:50.509Z,0
2023-01-15T04:08:30.971Z,0
2023-01-15T04:09:11.488Z,0
2023-01-15T04:09:51.959Z,0
2023-01-15T04:10:32.506Z,0
2023-01-15T04:11:13.002Z,0
2023-01-15T04:11:53.537Z,0
2023-01-15T04:12:34.160Z,0
2023-01-15T04:13:14.571Z,0
2023-01-15T04:13:55.047Z,0
2023-01-15T04:21:20.529Z,0
2023-01-15T04:22:01.011Z,0
2023-01-15T04:22:41.526Z,0
2023-01-15T04:23:22.046Z,0
2023-01-15T04:24:02.534Z,0
2023-01-15T04:24:43.048Z,0
2023-01-15T04:25:23.542Z,0
2023-01-15T04:26:04.036Z,0
2023-01-15T04:26:44.493Z,0
2023-01-15T04:27:25.026Z,0
2023-01-15T04:34:50.460Z,0
2023-01-15T04:35:30.981Z,0
2023-01-15T04:36:11.551Z,0
2023-01-15T04:36:52.037Z,0
2023-01-15T04:37:32.545Z,0
2023-01-15T04:38:13.045Z,0
2023-01-15T04:38:53.495Z,0
2023-01-15T04:39:33.980Z,0
2023-01-15T04:40:14.488Z,0
2023-01-15T04:40:54.973Z,0
2023-01-15T04:48:20.482Z,0
2023-01-15T04:49:00.988Z,0
2023-01-15T04:49:41.465Z,0
2023-01-15T04:50:21.943Z,0
2023-01-15T04:51:02.462Z,0
2023-01-15T04:51:42.966Z,0
2023-01-15T04:52:23.456Z,0
2023-01-15T04:53:03.954Z,0
2023-01-15T04:53:44.420Z,0
2023-01-15T04:54:24.941Z,0
2023-01-15T05:02:02.261Z,0
2023-01-15T05:02:30.944Z,0
2023-01-15T05:03:11.319Z,0
2023-01-15T05:03:51.871Z,0
2023-01-15T05:04:32.580Z,0
2023-01-15T05:05:12.761Z,0
2023-01-15T05:05:53.246Z,0
2023-01-15T05:06:33.773Z,0
2023-01-15T05:07:14.236Z,0
2023-01-15T05:07:54.718Z,0
2023-01-15T05:08:35.227Z,0
2023-01-15T05:15:20.234Z,0
2023-01-15T05:16:00.752Z,0
2023-01-15T05:16:41.235Z,0
2023-01-15T05:17:21.715Z,0
2023-01-15T05:18:02.270Z,0
2023-01-15T05:18:42.743Z,0
2023-01-15T05:19:23.204Z,0
2023-01-15T05:20:03.709Z,0
2023-01-15T05:20:44.204Z,0
2023-01-15T05:21:24.694Z,0
2023-01-15T05:22:05.226Z,0
2023-01-15T05:29:30.647Z,0
2023-01-15T05:30:11.139Z,0
2023-01-15T05:30:51.647Z,0
2023-01-15T05:31:32.146Z,0
2023-01-15T05:32:12.611Z,0
2023-01-15T05:32:53.103Z,0
2023-01-15T05:33:33.592Z,0
2023-01-15T05:34:14.142Z,0
2023-01-15T05:34:54.535Z,0
2023-01-15T05:35:35.024Z,0
2023-01-15T05:43:00.396Z,0
2023-01-15T05:43:40.855Z,0
2023-01-15T05:44:21.388Z,0
2023-01-15T05:45:01.855Z,0
2023-01-15T05:45:42.337Z,0
2023-01-15T05:46:22.894Z,0
2023-01-15T05:47:03.352Z,0
2023-01-15T05:47:43.875Z,0
2023-01-15T05:51:22.822Z,0
2023-01-15T05:52:03.314Z,0
2023-01-15T05:52:43.807Z,0
2023-01-15T06:32:21.823Z,0
2023-01-15T06:33:02.265Z,0
2023-01-15T06:33:43.353Z,0
2023-01-15T06:34:23.876Z,0
2023-01-15T06:37:46.470Z,0
2023-01-15T06:38:27.030Z,0
2023-01-15T06:39:07.833Z,0
2023-01-15T06:39:48.375Z,0
2023-01-15T06:40:28.864Z,0
2023-01-15T06:41:09.353Z,0
2023-01-15T06:41:49.935Z,0
2023-01-15T06:42:30.410Z,0
2023-01-15T06:43:10.949Z,0
2023-01-15T06:50:36.472Z,0
2023-01-15T06:51:16.959Z,0
2023-01-15T06:51:57.526Z,0
2023-01-15T06:52:37.957Z,0
2023-01-15T06:53:18.462Z,0
2023-01-15T06:53:58.975Z,0
2023-01-15T06:54:39.429Z,0
2023-01-15T06:55:20.146Z,0
2023-01-15T06:56:00.609Z,0
2023-01-15T06:56:41.101Z,0
2023-01-15T07:03:26.799Z,0
2023-01-15T07:04:07.367Z,0
2023-01-15T07:04:47.881Z,0
2023-01-15T07:05:28.277Z,0
2023-01-15T07:06:08.803Z,0
2023-01-15T07:06:49.316Z,0
2023-01-15T07:07:29.811Z,0
2023-01-15T07:08:10.318Z,0
2023-01-15T07:08:51.081Z,0
2023-01-15T07:16:16.721Z,0
2023-01-15T07:16:57.232Z,0
2023-01-15T07:17:37.782Z,0
2023-01-15T07:18:18.317Z,0
2023-01-15T07:18:58.873Z,0
2023-01-15T07:19:39.322Z,0
2023-01-15T07:20:19.838Z,0
2023-01-15T07:21:00.376Z,0
2023-01-15T07:21:40.899Z,0
2023-01-15T07:22:21.313Z,0
2023-01-15T07:29:06.604Z,0
2023-01-15T07:29:47.677Z,0
2023-01-15T07:30:27.711Z,0
2023-01-15T07:31:08.271Z,0
2023-01-15T07:31:48.755Z,0
2023-01-15T07:32:29.260Z,0
2023-01-15T07:33:09.739Z,0
2023-01-15T07:36:49.153Z,0
2023-01-15T07:37:29.615Z,0
2023-01-15T07:38:10.151Z,0
2023-01-15T07:42:14.524Z,0
2023-01-15T07:42:55.170Z,0
2023-01-15T07:43:35.635Z,0
2023-01-15T07:44:16.115Z,0
2023-01-15T07:44:56.611Z,0
2023-01-15T07:45:37.147Z,0
2023-01-15T07:46:17.623Z,0
2023-01-15T07:46:58.126Z,0
2023-01-15T07:47:38.693Z,0
2023-01-15T07:52:24.860Z,0
2023-01-15T07:53:05.831Z,0
2023-01-15T07:53:46.520Z,0
2023-01-15T07:54:27.900Z,0
2023-01-15T07:55:08.413Z,0
2023-01-15T07:59:54.414Z,0
2023-01-15T08:00:34.980Z,0
2023-01-15T08:01:15.529Z,0
2023-01-15T08:01:56.065Z,0
2023-01-15T08:02:36.712Z,0
2023-01-15T08:03:17.203Z,0
2023-01-15T08:03:57.950Z,0
2023-01-15T08:09:24.290Z,0
2023-01-15T08:10:04.908Z,0
2023-01-15T08:10:45.882Z,0
2023-01-15T08:11:27.120Z,0
2023-01-15T08:15:12.955Z,0
2023-01-15T08:15:53.212Z,0
2023-01-15T08:16:33.757Z,0
2023-01-15T08:17:14.176Z,0
2023-01-15T08:21:58.255Z,0
2023-01-15T08:22:38.778Z,0
2023-01-15T08:23:19.336Z,0
2023-01-15T08:23:59.862Z,0
2023-01-15T08:24:40.326Z,0
2023-01-15T08:25:20.824Z,0
2023-01-15T08:26:01.941Z,0
2023-01-15T08:32:48.890Z,0
2023-01-15T08:33:29.365Z,0
2023-01-15T08:34:09.849Z,0
2023-01-15T08:34:50.352Z,0
2023-01-15T08:35:31.346Z,0
2023-01-15T08:36:12.556Z,0
2023-01-15T08:36:52.807Z,0
2023-01-15T08:42:18.200Z,0
2023-01-15T08:42:58.918Z,0
2023-01-15T08:43:39.663Z,0
2023-01-15T08:44:20.471Z,0
2023-01-15T08:45:00.893Z,0
2023-01-15T08:45:41.413Z,0
2023-01-15T08:46:21.940Z,0
2023-01-15T08:47:02.399Z,5
2023-01-15T08:47:43.017Z,5
2023-01-15T08:54:28.161Z,5
2023-01-15T08:55:08.599Z,5
2023-01-15T08:55:49.122Z,5
2023-01-15T08:56:29.580Z,5
2023-01-15T08:57:10.150Z,5
2023-01-15T08:57:50.640Z,5
2023-01-15T08:58:31.126Z,5
2023-01-15T08:59:11.591Z,5
2023-01-15T08:59:52.141Z,5
2023-01-15T09:00:32.604Z,5
2023-01-15T09:07:58.141Z,5
2023-01-15T09:08:38.729Z,5
2023-01-15T09:09:19.253Z,5
2023-01-15T09:09:59.727Z,5
2023-01-15T09:10:40.204Z,5
2023-01-15T09:11:20.716Z,5
2023-01-15T09:12:01.184Z,5
2023-01-15T09:12:41.760Z,5
2023-01-15T09:13:22.209Z,5
2023-01-15T09:14:02.719Z,5
2023-01-15T09:20:48.016Z,5
2023-01-15T09:21:28.585Z,5
2023-01-15T09:22:09.150Z,5
2023-01-15T09:22:49.689Z,5
2023-01-15T09:23:30.185Z,5
2023-01-15T09:24:10.707Z,5
2023-01-15T09:24:51.205Z,5
2023-01-15T09:28:10.221Z,5
2023-01-15T09:28:50.573Z,10
2023-01-15T09:29:31.085Z,10
2023-01-15T09:34:14.805Z,10
2023-01-15T09:34:55.281Z,10
2023-01-15T09:35:35.795Z,10
2023-01-15T09:36:16.319Z,15
2023-01-15T09:36:56.886Z,15
2023-01-15T09:37:37.352Z,15
2023-01-15T09:38:17.924Z,25
2023-01-15T09:38:58.581Z,30
2023-01-15T09:39:38.865Z,30
2023-01-15T09:40:19.327Z,30
2023-01-15T09:47:44.892Z,30
2023-01-15T09:48:25.461Z,25
2023-01-15T09:49:05.989Z,20
2023-01-15T09:49:46.489Z,25
2023-01-15T09:50:26.981Z,25
2023-01-15T09:51:07.498Z,25
2023-01-15T09:51:48.040Z,25
2023-01-15T09:52:28.489Z,30
2023-01-15T09:53:09.019Z,20
2023-01-15T09:53:49.531Z,25
2023-01-15T10:00:34.823Z,30
2023-01-15T10:01:15.391Z,20
2023-01-15T10:01:55.887Z,30
2023-01-15T10:02:36.372Z,25
2023-01-15T10:03:17.235Z,30
2023-01-15T10:03:57.734Z,30
2023-01-15T10:04:38.226Z,25
2023-01-15T10:05:19.018Z,30
2023-01-15T10:05:59.545Z,30
2023-01-15T10:11:17.037Z,30
2023-01-15T10:11:57.636Z,30
2023-01-15T10:12:38.091Z,30
2023-01-15T10:16:01.870Z,30
2023-01-15T10:16:43.185Z,30
2023-01-15T10:17:23.749Z,30
2023-01-15T10:18:04.302Z,30
2023-01-15T10:18:45.121Z,30
2023-01-15T10:19:31.827Z,30
2023-01-15T10:26:51.117Z,30
2023-01-15T10:27:31.639Z,30
2023-01-15T10:28:12.267Z,30
2023-01-15T10:28:52.813Z,30
2023-01-15T10:29:33.263Z,30
2023-01-15T10:30:13.741Z,30
2023-01-15T10:30:54.313Z,30
2023-01-15T10:31:34.815Z,30
2023-01-15T10:32:15.264Z,30
2023-01-15T10:33:03.585Z,30
2023-01-15T10:40:21.253Z,30
2023-01-15T10:41:01.805Z,30
2023-01-15T10:43:40.713Z,30
2023-01-15T10:44:20.966Z,30
2023-01-15T10:45:01.488Z,30
2023-01-15T10:49:44.915Z,30
2023-01-15T10:50:25.418Z,30
2023-01-15T10:51:05.973Z,30
2023-01-15T10:51:46.427Z,30
2023-01-15T10:52:26.912Z,30
2023-01-15T10:53:07.467Z,30
2023-01-15T10:53:47.908Z,30
2023-01-15T10:54:28.458Z,30
2023-01-15T10:55:08.900Z,30
2023-01-15T10:55:49.450Z,30
2023-01-15T10:56:29.977Z,30
2023-01-15T11:03:15.146Z,35
2023-01-15T11:03:55.438Z,30
2023-01-15T11:04:35.945Z,35
2023-01-15T11:05:16.489Z,30
2023-01-15T11:05:56.914Z,30
2023-01-15T11:06:37.442Z,30
2023-01-15T11:07:17.915Z,30
2023-01-15T11:09:19.403Z,35
2023-01-15T11:09:59.878Z,35
2023-01-15T11:16:44.922Z,35
2023-01-15T11:17:25.378Z,35
2023-01-15T11:18:05.874Z,30
2023-01-15T11:18:46.385Z,30
2023-01-15T11:19:27.150Z,35
2023-01-15T11:20:07.671Z,30
2023-01-15T11:20:48.187Z,25
2023-01-15T11:21:28.697Z,30
2023-01-15T11:22:09.151Z,20
2023-01-15T11:22:49.627Z,30
2023-01-15T11:30:15.443Z,30
2023-01-15T11:30:55.893Z,35
2023-01-15T11:31:36.373Z,35
2023-01-15T11:32:16.878Z,35
2023-01-15T11:32:57.327Z,35
2023-01-15T11:33:37.836Z,35
2023-01-15T11:34:19.773Z,30
2023-01-15T11:34:58.858Z,30
2023-01-15T11:35:39.325Z,35
2023-01-15T11:36:19.850Z,35
2023-01-15T11:43:45.265Z,20
2023-01-15T11:44:25.745Z,25
2023-01-15T11:45:06.290Z,25
2023-01-15T11:45:46.730Z,15
2023-01-15T11:46:27.237Z,15
2023-01-15T11:47:07.677Z,15
2023-01-15T11:47:48.219Z,15
2023-01-15T11:48:28.653Z,15
2023-01-15T11:49:09.163Z,20
2023-01-15T11:49:49.735Z,15
2023-01-15T12:33:45.572Z,30
2023-01-15T12:34:26.116Z,15
2023-01-15T12:35:06.549Z,15
2023-01-15T12:39:50.129Z,30
2023-01-15T12:40:30.627Z,30
2023-01-15T12:41:11.150Z,30
2023-01-15T12:41:51.657Z,30
2023-01-15T12:42:32.182Z,20
2023-01-15T12:43:12.707Z,30
2023-01-15T12:43:53.143Z,30
2023-01-15T12:44:33.650Z,30
2023-01-15T12:45:14.257Z,30
2023-01-15T12:45:54.864Z,30
2023-01-15T12:52:40.211Z,25
2023-01-15T12:53:20.759Z,20
2023-01-15T12:54:01.268Z,30
2023-01-15T12:54:41.749Z,25
2023-01-15T12:55:22.215Z,30
2023-01-15T12:56:02.769Z,30
2023-01-15T12:56:43.246Z,30
2023-01-15T12:57:23.893Z,30
2023-01-15T12:58:04.614Z,30
2023-01-15T12:58:45.037Z,30
2023-01-15T13:05:30.394Z,30
2023-01-15T13:09:09.682Z,25
2023-01-15T13:09:50.045Z,25
2023-01-15T13:10:30.563Z,25
2023-01-15T13:16:27.568Z,25
2023-01-15T13:17:08.089Z,25
2023-01-15T13:17:48.576Z,15
2023-01-15T13:18:30.275Z,25
2023-01-15T13:19:10.007Z,25
2023-01-15T13:19:50.431Z,25
2023-01-15T13:20:30.914Z,25
2023-01-15T13:21:11.418Z,25
2023-01-15T13:21:51.949Z,25
2023-01-15T13:22:32.424Z,25
2023-01-15T13:23:12.913Z,25
2023-01-15T13:23:53.454Z,25
2023-01-15T13:30:38.642Z,20
2023-01-15T13:31:19.139Z,20
2023-01-15T13:31:59.684Z,20
2023-01-15T13:32:40.140Z,20
2023-01-15T13:33:20.660Z,20
2023-01-15T13:34:01.156Z,20
2023-01-15T13:34:41.656Z,20
2023-01-15T13:35:22.154Z,20
2023-01-15T13:36:02.724Z,20
2023-01-15T13:36:45.492Z,20
2023-01-15T13:37:23.724Z,20
2023-01-15T13:46:02.323Z,20
2023-01-15T13:46:42.869Z,20
2023-01-15T13:47:23.460Z,20
2023-01-15T13:50:47.041Z,20
2023-01-15T13:51:27.565Z,20
2023-01-15T13:52:08.031Z,15
2023-01-15T13:52:48.524Z,20
2023-01-15T13:53:28.999Z,20
2023-01-15T13:54:09.465Z,20
2023-01-15T13:54:49.967Z,20
2023-01-15T13:55:30.497Z,20
2023-01-15T13:59:26.203Z,15
2023-01-15T14:00:06.718Z,15
2023-01-15T14:00:47.266Z,15
2023-01-15T14:06:11.462Z,10
2023-01-15T14:06:52.049Z,10
2023-01-15T14:07:32.662Z,10
2023-01-15T14:08:13.113Z,10
2023-01-15T14:08:53.647Z,10
2023-01-15T14:09:34.173Z,10
2023-01-15T14:10:14.756Z,10
2023-01-15T14:10:55.339Z,10
2023-01-15T14:11:35.897Z,5
2023-01-15T14:18:21.104Z,5
2023-01-15T14:19:01.662Z,5
2023-01-15T14:19:42.360Z,5
2023-01-15T14:20:23.000Z,5
2023-01-15T14:21:03.456Z,5
2023-01-15T14:21:43.995Z,5
2023-01-15T14:22:24.517Z,5
2023-01-15T14:23:45.639Z,5
2023-01-15T14:30:30.916Z,5
2023-01-15T14:31:11.466Z,0
2023-01-15T14:31:52.128Z,5
2023-01-15T14:32:32.675Z,5
2023-01-15T14:33:13.175Z,0
2023-01-15T14:36:52.304Z,0
2023-01-15T14:37:32.877Z,0
2023-01-15T14:38:13.407Z,0
2023-01-15T14:42:56.911Z,0
2023-01-15T14:43:37.466Z,0
2023-01-15T14:44:17.950Z,0
2023-01-15T14:44:58.628Z,0
2023-01-15T14:45:39.054Z,0
2023-01-15T14:46:19.603Z,0
2023-01-15T14:47:00.154Z,0
2023-01-15T14:47:40.731Z,0
2023-01-15T14:48:21.216Z,0
2023-01-15T14:49:01.735Z,0
2023-01-15T14:56:27.296Z,5
2023-01-15T14:57:07.805Z,5
2023-01-15T14:57:48.360Z,5
2023-01-15T14:59:09.333Z,5
2023-01-15T14:59:49.862Z,5
2023-01-15T15:00:30.334Z,5
2023-01-15T15:01:10.962Z,5
2023-01-15T15:01:51.614Z,5
2023-01-15T15:02:32.057Z,5
2023-01-15T15:09:17.107Z,5
2023-01-15T15:09:57.762Z,5
2023-01-15T15:10:38.184Z,5
2023-01-15T15:11:18.772Z,5
2023-01-15T15:11:59.269Z,5
2023-01-15T15:12:39.806Z,15
2023-01-15T15:13:20.246Z,10
2023-01-15T15:14:00.801Z,10
2023-01-15T15:14:41.230Z,5
2023-01-15T15:15:21.722Z,5
2023-01-15T15:22:47.253Z,10
2023-01-15T15:23:27.749Z,5
2023-01-15T15:24:08.293Z,5
2023-01-15T15:24:48.806Z,0
2023-01-15T15:25:29.270Z,0
2023-01-15T15:26:09.838Z,0
2023-01-15T15:26:50.346Z,0
2023-01-15T15:27:30.871Z,0
2023-01-15T15:28:11.418Z,0
2023-01-15T15:28:51.913Z,5
2023-01-15T15:35:36.926Z,0
2023-01-15T15:36:17.443Z,0
2023-01-15T15:36:59.397Z,0
2023-01-15T15:37:39.028Z,0
2023-01-15T15:38:19.516Z,0
2023-01-15T15:39:00.030Z,0
2023-01-15T15:39:40.511Z,0
2023-01-15T15:40:20.963Z,0
2023-01-15T15:41:01.494Z,0
2023-01-15T15:48:27.240Z,0
2023-01-15T15:49:07.812Z,0
2023-01-15T15:49:48.260Z,0
2023-01-15T15:50:28.778Z,0
2023-01-15T15:51:09.380Z,0
2023-01-15T15:51:50.010Z,0
2023-01-15T15:52:30.404Z,0
2023-01-15T15:53:10.943Z,0
2023-01-15T15:53:51.485Z,0
2023-01-15T15:54:31.947Z,0
2023-01-15T16:00:37.445Z,0
2023-01-15T16:01:18.327Z,0
2023-01-15T16:01:58.595Z,0
2023-01-15T16:02:39.317Z,0
2023-01-15T16:03:20.041Z,0
2023-01-15T16:04:00.645Z,0
2023-01-15T16:04:41.060Z,0
2023-01-15T16:05:21.649Z,0
2023-01-15T16:10:46.979Z,0
2023-01-15T16:11:27.487Z,0
2023-01-15T16:12:07.992Z,0
2023-01-15T16:12:48.557Z,0
2023-01-15T16:13:29.080Z,0
2023-01-15T16:14:09.613Z,0
2023-01-15T16:14:50.182Z,0
2023-01-15T16:15:30.833Z,0
2023-01-15T16:16:11.375Z,0
2023-01-15T16:16:51.903Z,0
2023-01-15T16:22:57.458Z,0
2023-01-15T16:23:37.994Z,0
2023-01-15T16:24:18.655Z,0
2023-01-15T16:24:59.196Z,0
2023-01-15T16:25:39.779Z,0
2023-01-15T16:26:20.606Z,0
2023-01-15T16:27:01.033Z,0
2023-01-15T16:27:41.536Z,0
2023-01-15T16:28:22.025Z,0
2023-01-15T16:34:27.217Z,0
2023-01-15T16:35:07.820Z,0
2023-01-15T16:35:48.606Z,0
2023-01-15T16:36:29.173Z,0
2023-01-15T16:37:09.781Z,0
2023-01-15T16:37:50.287Z,0
2023-01-15T16:38:30.852Z,0
2023-01-15T16:39:11.304Z,0
2023-01-15T16:39:51.829Z,0
2023-01-15T16:45:07.031Z,0
2023-01-15T16:45:47.553Z,0
2023-01-15T16:46:28.120Z,0
2023-01-15T16:47:08.611Z,0
2023-01-15T16:51:11.745Z,0
2023-01-15T16:51:52.285Z,0
2023-01-15T16:52:32.821Z,0
2023-01-15T16:53:13.419Z,0
2023-01-15T16:53:53.862Z,0
2023-01-15T16:54:34.400Z,0
2023-01-15T16:55:16.117Z,0
2023-01-15T16:55:55.422Z,0
2023-01-15T16:56:35.946Z,0
2023-01-15T16:57:16.460Z,0
2023-01-15T17:04:01.887Z,0
2023-01-15T17:04:42.379Z,0
2023-01-15T17:05:22.891Z,0
2023-01-15T17:06:03.397Z,0
2023-01-15T17:06:43.899Z,0
2023-01-15T17:07:24.452Z,0
2023-01-15T17:08:45.548Z,0
2023-01-15T17:09:26.981Z,0
2023-01-15T17:10:06.560Z,0
2023-01-15T17:16:51.877Z,0
2023-01-15T17:17:32.386Z,0
2023-01-15T17:18:12.882Z,0
2023-01-15T17:18:53.366Z,0
2023-01-15T17:19:33.873Z,0
2023-01-15T17:20:14.392Z,0
2023-01-15T17:20:54.877Z,0
2023-01-15T17:21:35.366Z,0
2023-01-15T17:22:15.880Z,0
2023-01-15T17:22:56.431Z,0
2023-01-15T17:30:21.902Z,0
2023-01-15T17:31:02.441Z,0
2023-01-15T17:31:42.957Z,0
2023-01-15T17:32:23.525Z,0
2023-01-15T17:33:04.010Z,0
2023-01-15T17:33:44.469Z,0
2023-01-15T17:34:24.946Z,0
2023-01-15T17:35:05.668Z,0
2023-01-15T17:35:46.163Z,0
2023-01-15T17:43:12.084Z,0
2023-01-15T17:43:52.601Z,0
2023-01-15T17:44:33.165Z,0
2023-01-15T17:45:13.825Z,0
2023-01-15T17:45:54.138Z,0
2023-01-15T17:46:34.658Z,0
2023-01-15T17:47:15.136Z,0
2023-01-15T17:50:54.242Z,0
2023-01-15T17:51:34.690Z,0
2023-01-15T17:52:15.196Z,0
2023-01-15T18:34:36.425Z,0
2023-01-15T18:35:16.852Z,0
2023-01-15T18:35:57.326Z,0
2023-01-15T18:36:37.810Z,0
2023-01-15T18:40:40.837Z,0
2023-01-15T18:44:19.971Z,0
2023-01-15T18:45:00.414Z,0
2023-01-15T18:45:40.886Z,0
2023-01-15T18:46:21.397Z,0
2023-01-15T18:50:24.562Z,0
2023-01-15T18:51:05.099Z,0
2023-01-15T18:51:45.567Z,0
2023-01-15T18:52:26.027Z,0
2023-01-15T18:53:06.532Z,0
2023-01-15T18:53:47.085Z,0
2023-01-15T18:54:27.559Z,0
2023-01-15T18:55:08.283Z,0
2023-01-15T19:03:14.816Z,0
2023-01-15T19:03:55.366Z,0
2023-01-15T19:04:35.885Z,0
2023-01-15T19:05:16.368Z,0
2023-01-15T19:05:56.861Z,0
2023-01-15T19:06:37.344Z,0
2023-01-15T19:07:17.854Z,0
2023-01-15T19:07:58.958Z,0
2023-01-15T19:15:24.589Z,0
2023-01-15T19:16:05.185Z,0
2023-01-15T19:16:45.625Z,0
2023-01-15T19:17:26.091Z,0
2023-01-15T19:18:06.663Z,0
2023-01-15T19:18:47.169Z,0
2023-01-15T19:19:27.885Z,0
2023-01-15T19:20:08.369Z,0
2023-01-15T19:20:48.873Z,0
2023-01-15T19:21:29.396Z,0
2023-01-15T19:28:14.480Z,0
2023-01-15T19:28:54.993Z,0
2023-01-15T19:29:35.529Z,0
2023-01-15T19:30:16.028Z,0
2023-01-15T19:30:56.545Z,0
2023-01-15T19:31:37.388Z,0
2023-01-15T19:32:17.626Z,0
2023-01-15T19:32:58.147Z,0
2023-01-15T19:33:38.810Z,0
2023-01-15T19:34:32.972Z,0
2023-01-15T19:41:44.991Z,0
2023-01-15T19:42:25.484Z,0
2023-01-15T19:43:05.964Z,0
2023-01-15T19:43:46.462Z,0
2023-01-15T19:44:26.950Z,0
2023-01-15T19:45:07.453Z,0
2023-01-15T19:45:47.947Z,0
2023-01-15T19:46:28.455Z,0
2023-01-15T19:47:09.128Z,0
2023-01-15T19:54:34.810Z,0
2023-01-15T19:55:15.376Z,0
2023-01-15T19:55:55.848Z,0
2023-01-15T19:56:36.341Z,0
2023-01-15T19:57:16.835Z,0
2023-01-15T19:57:57.326Z,0
2023-01-15T19:58:37.819Z,0
2023-01-15T19:59:18.298Z,0
2023-01-15T19:59:58.835Z,0
2023-01-15T20:00:39.699Z,0
2023-01-15T20:06:05.045Z,0
2023-01-15T20:06:45.369Z,0
2023-01-15T20:07:25.893Z,0
2023-01-15T20:08:06.447Z,0
2023-01-15T20:08:46.920Z,0
2023-01-15T20:09:27.446Z,0
2023-01-15T20:10:07.984Z,0
2023-01-15T20:10:48.513Z,0
2023-01-15T20:14:27.558Z,0
2023-01-15T20:15:08.029Z,0
2023-01-15T20:15:48.497Z,0
2023-01-15T20:20:32.179Z,0
2023-01-15T20:21:12.723Z,0
2023-01-15T20:21:53.252Z,0
2023-01-15T20:22:33.759Z,0
2023-01-15T20:23:14.280Z,0
2023-01-15T20:23:54.751Z,0
2023-01-15T20:24:35.294Z,0
2023-01-15T20:25:15.741Z,0
2023-01-15T20:25:56.217Z,0
2023-01-15T20:26:36.716Z,0
2023-01-15T20:34:02.352Z,0
2023-01-15T20:34:43.387Z,0
2023-01-15T20:35:23.900Z,0
2023-01-15T20:36:04.430Z,0
2023-01-15T20:36:44.989Z,0
2023-01-15T20:40:24.072Z,0
2023-01-15T20:41:04.455Z,0
2023-01-15T20:41:44.931Z,0
2023-01-15T20:46:28.948Z,0
2023-01-15T20:47:09.483Z,0
2023-01-15T20:47:49.915Z,0
2023-01-15T20:48:30.430Z,0
2023-01-15T20:49:10.964Z,0
2023-01-15T20:49:51.444Z,0
2023-01-15T20:50:31.911Z,0
2023-01-15T20:51:13.073Z,0
2023-01-15T20:58:38.695Z,0
2023-01-15T20:59:19.948Z,0
2023-01-15T21:00:00.455Z,0
2023-01-15T21:00:41.960Z,0
2023-01-15T21:01:22.472Z,0
2023-01-15T21:02:43.541Z,0
2023-01-15T21:08:08.940Z,0
2023-01-15T21:08:49.468Z,0
2023-01-15T21:09:30.015Z,0
2023-01-15T21:10:10.701Z,0
2023-01-15T21:10:51.196Z,0
2023-01-15T21:11:31.743Z,0
2023-01-15T21:12:12.285Z,0
2023-01-15T21:12:52.818Z,0
2023-01-15T21:13:33.343Z,0
2023-01-15T21:20:58.830Z,0
2023-01-15T21:21:39.325Z,0
2023-01-15T21:22:19.791Z,0
2023-01-15T21:23:00.273Z,0
2023-01-15T21:23:40.765Z,0
2023-01-15T21:24:21.296Z,0
2023-01-15T21:25:01.763Z,0
2023-01-15T21:25:42.237Z,0
2023-01-15T21:26:22.872Z,0
2023-01-15T21:27:03.279Z,0
2023-01-15T21:34:28.812Z,0
2023-01-15T21:35:09.354Z,0
2023-01-15T21:35:49.809Z,0
2023-01-15T21:36:30.294Z,0
2023-01-15T21:37:10.773Z,0
2023-01-15T21:37:51.312Z,0
2023-01-15T21:38:31.821Z,0
2023-01-15T21:39:12.311Z,0
2023-01-15T21:39:52.989Z,0
2023-01-15T21:40:33.500Z,0
2023-01-15T21:45:58.843Z,0
2023-01-15T21:46:39.267Z,0
2023-01-15T21:47:19.766Z,0
2023-01-15T21:48:00.271Z,0
2023-01-15T21:48:40.806Z,0
2023-01-15T21:49:21.255Z,0
2023-01-15T21:50:01.811Z,0
2023-01-15T21:50:43.006Z,0
2023-01-15T21:51:23.518Z,0
2023-01-15T21:55:18.464Z,0
2023-01-15T21:55:58.770Z,0
2023-01-15T21:56:39.280Z,0
2023-01-15T22:02:03.390Z,0
2023-01-15T22:02:43.881Z,0
2023-01-15T22:03:25.226Z,0
2023-01-15T22:04:05.765Z,0
2023-01-15T22:04:46.278Z,0
2023-01-15T22:05:26.799Z,0
2023-01-15T22:06:07.291Z,0
2023-01-15T22:06:47.795Z,0
2023-01-15T22:11:22.513Z,0
2023-01-15T22:12:04.162Z,0
2023-01-15T22:12:44.715Z,0
2023-01-15T22:16:07.158Z,0
2023-01-15T22:16:47.861Z,0
2023-01-15T22:17:28.333Z,0
2023-01-15T22:18:08.848Z,0
2023-01-15T22:18:49.329Z,0
2023-01-15T22:19:30.645Z,0
2023-01-15T22:20:10.529Z,0
2023-01-15T22:20:51.000Z,0
2023-01-15T22:21:31.500Z,0
2023-01-15T22:22:11.973Z,0
2023-01-15T22:29:37.592Z,0
2023-01-15T22:30:18.742Z,0
2023-01-15T22:30:59.228Z,0
2023-01-15T22:31:39.804Z,0